Terminal Aerodrome Forecast
Issued by NWS

Home | Current Version | Previous Version | Text Only | Print | Product List | Glossary On
Versions: 1 2 3 4 5 6 7 8 9 10 11 12 13 14 15 16 17 18 19 20 21 22 23 24
000
FTUS44 KHGX 252339
TAFUTS
TAF
KUTS 252339Z 2600/2624 16012KT P6SM SCT250
     FM260500 16007KT P6SM SCT030
     FM260900 16005KT P6SM BKN028
     FM261700 14006KT P6SM VCSH SCT015 BKN025=

USA.gov is the U.S. government's official web portal to all federal, state and local government web resources and services.